createdAt,value
2022-08-27T00:00:14.985Z,936.15
2022-08-27T00:01:15.010Z,936.15
2022-08-27T00:02:15.570Z,936.15
2022-08-27T00:03:16.005Z,936.16
2022-08-27T00:04:16.943Z,936.19
2022-08-27T00:05:17.414Z,936.18
2022-08-27T00:06:18.343Z,936.18
2022-08-27T00:07:19.276Z,936.2
2022-08-27T00:08:19.776Z,936.19
2022-08-27T00:09:23.783Z,936.2
2022-08-27T00:10:21.366Z,936.22
2022-08-27T00:11:22.155Z,936.26
2022-08-27T00:12:22.652Z,936.25
2022-08-27T00:13:23.579Z,936.27
2022-08-27T00:14:24.077Z,936.31
2022-08-27T00:15:24.700Z,936.29
2022-08-27T00:16:25.059Z,936.28
2022-08-27T00:17:25.968Z,936.26
2022-08-27T00:18:26.188Z,936.25
2022-08-27T00:19:26.781Z,936.26
2022-08-27T00:20:27.698Z,936.26
2022-08-27T00:21:28.679Z,936.25
2022-08-27T00:22:29.278Z,936.25
2022-08-27T00:23:30.222Z,936.24
2022-08-27T00:24:30.870Z,936.2
2022-08-27T00:25:31.736Z,936.23
2022-08-27T00:26:32.338Z,936.17
2022-08-27T00:27:32.864Z,936.17
2022-08-27T00:28:33.057Z,936.18
2022-08-27T00:29:33.248Z,936.17
2022-08-27T00:30:33.571Z,936.19
2022-08-27T00:31:34.150Z,936.15
2022-08-27T00:32:34.301Z,936.15
2022-08-27T00:33:34.953Z,936.19
2022-08-27T00:34:35.158Z,936.19
2022-08-27T00:35:36.073Z,936.19
2022-08-27T00:36:36.691Z,936.14
2022-08-27T00:37:37.591Z,936.15
2022-08-27T00:38:38.497Z,936.16
2022-08-27T00:39:39.096Z,936.12
2022-08-27T00:40:39.456Z,936.12
2022-08-27T00:41:40.462Z,936.12
2022-08-27T00:42:40.677Z,936.13
2022-08-27T00:43:41.673Z,936.16
2022-08-27T00:44:41.868Z,936.17
2022-08-27T00:45:42.557Z,936.14
2022-08-27T00:46:42.747Z,936.13
2022-08-27T00:47:43.373Z,936.19
2022-08-27T00:48:44.288Z,936.13
2022-08-27T00:49:44.504Z,936.17
2022-08-27T00:50:45.443Z,936.13
2022-08-27T00:51:46.471Z,936.14
2022-08-27T00:52:47.042Z,936.12
2022-08-27T00:53:47.367Z,936.12
2022-08-27T00:54:48.283Z,936.12
2022-08-27T00:55:48.896Z,936.11
2022-08-27T00:56:50.681Z,936.12
2022-08-27T00:57:50.763Z,936.13
2022-08-27T00:58:51.566Z,936.12
2022-08-27T00:59:52.460Z,936.11
2022-08-27T01:00:52.688Z,936.12
2022-08-27T01:01:53.284Z,936.12
2022-08-27T01:02:53.804Z,936.13
2022-08-27T01:03:54.006Z,936.12
2022-08-27T01:04:54.654Z,936.13
2022-08-27T01:05:55.585Z,936.09
2022-08-27T01:06:55.747Z,936.11
2022-08-27T01:07:56.235Z,936.08
2022-08-27T01:08:56.935Z,936.07
2022-08-27T01:09:57.550Z,936.06
2022-08-27T01:10:57.766Z,936.04
2022-08-27T01:11:57.943Z,936.07
2022-08-27T01:12:58.138Z,936.08
2022-08-27T01:13:59.437Z,936.04
2022-08-27T01:14:58.842Z,936.05
2022-08-27T01:15:59.595Z,936.05
2022-08-27T01:17:00.396Z,936.01
2022-08-27T01:18:00.589Z,936.05
2022-08-27T01:19:01.222Z,936
2022-08-27T01:20:01.415Z,936
2022-08-27T01:21:02.058Z,936.01
2022-08-27T01:22:02.533Z,936.01
2022-08-27T01:23:03.479Z,936.01
2022-08-27T01:24:04.398Z,936.01
2022-08-27T01:25:04.886Z,936.05
2022-08-27T01:26:05.384Z,936.01
2022-08-27T01:27:06.001Z,936.06
2022-08-27T01:28:06.187Z,936.05
2022-08-27T01:29:06.347Z,936.06
2022-08-27T01:30:06.562Z,936.05
2022-08-27T01:31:07.517Z,936.04
2022-08-27T01:32:07.868Z,936.03
2022-08-27T01:33:08.485Z,936.01
2022-08-27T01:34:08.912Z,936.02
2022-08-27T01:35:09.556Z,935.99
2022-08-27T01:36:10.175Z,936
2022-08-27T01:37:10.667Z,935.99
2022-08-27T01:38:14.400Z,936.04
2022-08-27T01:39:11.217Z,936.01
2022-08-27T01:40:13.557Z,936.05
2022-08-27T01:41:12.669Z,936.02
2022-08-27T01:42:13.471Z,936.01
2022-08-27T01:43:13.671Z,936.07
2022-08-27T01:44:15.747Z,936.05
2022-08-27T01:45:15.142Z,936.03
2022-08-27T01:46:15.802Z,936.04
2022-08-27T01:47:16.589Z,936
2022-08-27T01:48:16.966Z,936.02
2022-08-27T01:49:17.290Z,936.02
2022-08-27T01:50:18.237Z,936
2022-08-27T01:51:19.156Z,935.98
2022-08-27T01:52:19.410Z,935.99
2022-08-27T01:53:20.358Z,935.97
2022-08-27T01:54:20.551Z,935.92
2022-08-27T01:55:20.925Z,935.93
2022-08-27T01:56:21.136Z,935.9
2022-08-27T01:57:25.798Z,935.91
2022-08-27T01:58:22.601Z,935.89
2022-08-27T01:59:23.221Z,935.87
2022-08-27T02:00:23.955Z,935.87
2022-08-27T02:01:24.307Z,935.9
2022-08-27T02:02:25.362Z,935.92
2022-08-27T02:03:26.385Z,935.94
2022-08-27T02:04:26.875Z,935.92
2022-08-27T02:05:27.072Z,935.9
2022-08-27T02:06:27.187Z,935.89
2022-08-27T02:07:27.406Z,935.87
2022-08-27T02:08:28.331Z,935.91
2022-08-27T02:09:28.556Z,935.86
2022-08-27T02:10:29.049Z,935.85
2022-08-27T02:11:29.243Z,935.84
2022-08-27T02:12:29.642Z,935.82
2022-08-27T02:13:29.983Z,935.81
2022-08-27T02:14:30.907Z,935.77
2022-08-27T02:15:31.125Z,935.77
2022-08-27T02:16:32.145Z,935.72
2022-08-27T02:17:33.124Z,935.72
2022-08-27T02:18:34.019Z,935.7
2022-08-27T02:19:34.283Z,935.71
2022-08-27T02:20:34.483Z,935.71
2022-08-27T02:21:35.109Z,935.74
2022-08-27T02:22:36.132Z,935.72
2022-08-27T02:23:36.516Z,935.72
2022-08-27T02:24:37.436Z,935.73
2022-08-27T02:25:37.807Z,935.72
2022-08-27T02:26:38.430Z,935.68
2022-08-27T02:27:38.778Z,935.68
2022-08-27T02:28:39.417Z,935.69
2022-08-27T02:29:39.617Z,935.67
2022-08-27T02:30:40.419Z,935.67
2022-08-27T02:31:40.739Z,935.68
2022-08-27T02:32:41.234Z,935.69
2022-08-27T02:33:42.135Z,935.68
2022-08-27T02:34:42.756Z,935.66
2022-08-27T02:35:42.976Z,935.68
2022-08-27T02:36:43.683Z,935.63
2022-08-27T02:37:44.022Z,935.67
2022-08-27T02:38:44.519Z,935.66
2022-08-27T02:39:46.121Z,935.65
2022-08-27T02:40:45.660Z,935.67
2022-08-27T02:41:46.238Z,935.65
2022-08-27T02:42:46.688Z,935.6
2022-08-27T02:43:47.307Z,935.59
2022-08-27T02:44:48.323Z,935.55
2022-08-27T02:45:48.517Z,935.55
2022-08-27T02:46:51.902Z,935.56
2022-08-27T02:47:50.523Z,935.56
2022-08-27T02:48:50.805Z,935.55
2022-08-27T02:49:51.032Z,935.55
2022-08-27T02:50:51.653Z,935.57
2022-08-27T02:51:51.844Z,935.55
2022-08-27T02:52:52.865Z,935.52
2022-08-27T02:53:52.999Z,935.5
2022-08-27T02:54:53.475Z,935.51
2022-08-27T02:55:53.608Z,935.5
2022-08-27T02:56:54.499Z,935.52
2022-08-27T02:57:54.698Z,935.49
2022-08-27T02:58:54.997Z,935.48
2022-08-27T02:59:55.919Z,935.52
2022-08-27T03:00:56.260Z,935.48
2022-08-27T03:01:56.533Z,935.48
2022-08-27T03:02:57.312Z,935.48
2022-08-27T03:03:58.006Z,935.49
2022-08-27T03:04:58.506Z,935.48
2022-08-27T03:05:58.701Z,935.51
2022-08-27T03:06:59.336Z,935.54
2022-08-27T03:07:59.825Z,935.54
2022-08-27T03:09:00.630Z,935.54
2022-08-27T03:10:00.831Z,935.53
2022-08-27T03:11:01.754Z,935.57
2022-08-27T03:12:02.252Z,935.54
2022-08-27T03:13:03.258Z,935.51
2022-08-27T03:14:03.487Z,935.53
2022-08-27T03:15:04.398Z,935.51
2022-08-27T03:16:05.121Z,935.53
2022-08-27T03:17:05.677Z,935.52
2022-08-27T03:18:06.600Z,935.56
2022-08-27T03:19:07.607Z,935.55
2022-08-27T03:20:08.705Z,935.53
2022-08-27T03:21:09.627Z,935.52
2022-08-27T03:22:10.546Z,935.54
2022-08-27T03:23:11.553Z,935.5
2022-08-27T03:24:14.681Z,935.47
2022-08-27T03:25:12.310Z,935.46
2022-08-27T03:26:12.529Z,935.45
2022-08-27T03:27:13.153Z,935.44
2022-08-27T03:28:22.435Z,935.45
2022-08-27T03:29:14.295Z,935.48
2022-08-27T03:30:15.090Z,935.51
2022-08-27T03:31:16.112Z,935.5
2022-08-27T03:32:16.305Z,935.5
2022-08-27T03:33:16.583Z,935.49
2022-08-27T03:34:19.887Z,935.51
2022-08-27T03:35:18.398Z,935.48
2022-08-27T03:36:18.875Z,935.48
2022-08-27T03:37:19.874Z,935.48
2022-08-27T03:38:20.508Z,935.48
2022-08-27T03:39:21.425Z,935.46
2022-08-27T03:40:22.053Z,935.42
2022-08-27T03:41:22.820Z,935.46
2022-08-27T03:42:23.840Z,935.42
2022-08-27T03:43:24.545Z,935.46
2022-08-27T03:44:25.443Z,935.45
2022-08-27T03:45:26.137Z,935.43
2022-08-27T03:46:26.944Z,935.47
2022-08-27T03:47:27.751Z,935.45
2022-08-27T03:48:28.368Z,935.49
2022-08-27T03:49:28.863Z,935.48
2022-08-27T03:50:29.755Z,935.46
2022-08-27T03:51:30.655Z,935.47
2022-08-27T03:52:31.148Z,935.43
2022-08-27T03:53:31.871Z,935.46
2022-08-27T03:54:32.796Z,935.44
2022-08-27T03:55:33.014Z,935.46
2022-08-27T03:56:33.517Z,935.47
2022-08-27T03:57:34.429Z,935.45
2022-08-27T03:58:34.626Z,935.47
2022-08-27T03:59:35.566Z,935.46
2022-08-27T04:00:35.990Z,935.46
2022-08-27T04:01:36.961Z,935.44
2022-08-27T04:02:37.671Z,935.42
2022-08-27T04:03:38.693Z,935.48
2022-08-27T04:04:39.612Z,935.4
2022-08-27T04:05:40.231Z,935.42
2022-08-27T04:06:40.443Z,935.41
2022-08-27T04:07:40.683Z,935.42
2022-08-27T04:08:41.172Z,935.44
2022-08-27T04:09:42.107Z,935.42
2022-08-27T04:10:43.004Z,935.4
2022-08-27T04:11:43.926Z,935.37
2022-08-27T04:12:44.541Z,935.35
2022-08-27T04:13:45.545Z,935.34
2022-08-27T04:14:46.447Z,935.37
2022-08-27T04:15:47.390Z,935.36
2022-08-27T04:16:48.253Z,935.35
2022-08-27T04:17:48.941Z,935.35
2022-08-27T04:18:49.137Z,935.32
2022-08-27T04:19:49.634Z,935.35
2022-08-27T04:20:49.841Z,935.38
2022-08-27T04:21:50.754Z,935.37
2022-08-27T04:22:50.952Z,935.4
2022-08-27T04:23:51.976Z,935.41
2022-08-27T04:30:55.924Z,935.4
2022-08-27T04:31:56.274Z,935.41
2022-08-27T04:32:56.897Z,935.41
2022-08-27T04:33:57.149Z,935.44
2022-08-27T04:34:57.368Z,935.47
2022-08-27T04:35:58.288Z,935.47
2022-08-27T04:36:59.204Z,935.45
2022-08-27T04:37:59.774Z,935.44
2022-08-27T04:38:59.994Z,935.49
2022-08-27T04:40:00.958Z,935.48
2022-08-27T04:41:01.014Z,935.49
2022-08-27T04:42:01.934Z,935.48
2022-08-27T04:43:02.827Z,935.49
2022-08-27T04:44:03.138Z,935.5
2022-08-27T04:45:03.645Z,935.52
2022-08-27T04:46:04.183Z,935.49
2022-08-27T04:47:04.608Z,935.53
2022-08-27T04:48:05.527Z,935.54
2022-08-27T04:49:07.135Z,935.56
2022-08-27T04:50:06.772Z,935.56
2022-08-27T04:51:06.930Z,935.63
2022-08-27T04:52:07.785Z,935.62
2022-08-27T04:53:08.407Z,935.65
2022-08-27T04:54:09.091Z,935.62
2022-08-27T04:55:09.602Z,935.64
2022-08-27T04:56:12.662Z,935.68
2022-08-27T04:57:10.728Z,935.69
2022-08-27T04:58:11.422Z,935.72
2022-08-27T04:59:12.166Z,935.73
2022-08-27T05:00:12.380Z,935.74
2022-08-27T05:01:12.589Z,935.75
2022-08-27T05:02:13.497Z,935.74
2022-08-27T05:03:13.688Z,935.77
2022-08-27T05:04:13.910Z,935.78
2022-08-27T05:05:16.096Z,935.78
2022-08-27T05:06:15.778Z,935.78
2022-08-27T05:07:16.258Z,935.78
2022-08-27T05:08:16.453Z,935.79
2022-08-27T05:09:17.368Z,935.82
2022-08-27T05:10:18.203Z,935.79
2022-08-27T05:11:18.401Z,935.82
2022-08-27T05:12:19.318Z,935.79
2022-08-27T05:13:20.233Z,935.85
2022-08-27T05:14:20.531Z,935.8
2022-08-27T05:15:20.741Z,935.83
2022-08-27T05:16:21.807Z,935.81
2022-08-27T05:17:22.776Z,935.8
2022-08-27T05:18:22.934Z,935.8
2022-08-27T05:19:23.535Z,935.79
2022-08-27T05:20:24.467Z,935.8
2022-08-27T05:21:24.658Z,935.81
2022-08-27T05:22:24.847Z,935.81
2022-08-27T05:23:25.762Z,935.79
2022-08-27T05:24:26.646Z,935.8
2022-08-27T05:25:27.629Z,935.8
2022-08-27T05:26:28.527Z,935.77
2022-08-27T05:27:28.727Z,935.77
2022-08-27T05:28:29.218Z,935.79
2022-08-27T05:29:29.710Z,935.79
2022-08-27T05:30:29.988Z,935.76
2022-08-27T05:31:30.754Z,935.76
2022-08-27T05:32:31.568Z,935.77
2022-08-27T05:33:31.766Z,935.74
2022-08-27T05:34:31.977Z,935.73
2022-08-27T05:35:32.473Z,935.73
2022-08-27T05:36:32.674Z,935.72
2022-08-27T05:37:33.576Z,935.68
2022-08-27T05:38:33.769Z,935.69
2022-08-27T05:39:34.689Z,935.7
2022-08-27T05:40:34.986Z,935.67
2022-08-27T05:41:35.651Z,935.7
2022-08-27T05:42:36.577Z,935.72
2022-08-27T05:43:37.518Z,935.7
2022-08-27T05:44:48.116Z,935.71
2022-08-27T05:45:49.017Z,935.74
2022-08-27T05:46:49.396Z,935.74
2022-08-27T05:47:50.318Z,935.76
2022-08-27T05:48:50.625Z,935.77
2022-08-27T05:49:51.550Z,935.77
2022-08-27T05:50:52.446Z,935.77
2022-08-27T05:51:52.652Z,935.75
2022-08-27T05:52:53.298Z,935.76
2022-08-27T05:53:54.243Z,935.74
2022-08-27T05:54:54.645Z,935.74
2022-08-27T05:55:55.590Z,935.78
2022-08-27T05:56:56.606Z,935.76
2022-08-27T05:57:57.555Z,935.78
2022-08-27T05:58:58.382Z,935.78
2022-08-27T05:59:58.489Z,935.82
2022-08-27T06:01:03.001Z,935.81
2022-08-27T06:02:00.315Z,935.79
2022-08-27T06:03:00.946Z,935.83
2022-08-27T06:04:01.176Z,935.84
2022-08-27T06:05:01.475Z,935.87
2022-08-27T06:06:01.941Z,935.87
2022-08-27T06:07:02.569Z,935.85
2022-08-27T06:08:03.475Z,935.86
2022-08-27T06:09:04.280Z,935.9
2022-08-27T06:10:04.476Z,935.9
2022-08-27T06:11:04.678Z,935.87
2022-08-27T06:12:05.530Z,935.88
2022-08-27T06:13:05.725Z,935.86
2022-08-27T06:14:06.624Z,935.85
2022-08-27T06:15:07.621Z,935.84
2022-08-27T06:16:07.833Z,935.88
2022-08-27T06:17:08.562Z,935.86
2022-08-27T06:18:09.108Z,935.85
2022-08-27T06:19:09.349Z,935.87
2022-08-27T06:20:09.972Z,935.87
2022-08-27T06:21:10.262Z,935.87
2022-08-27T06:22:11.019Z,935.84
2022-08-27T06:23:10.988Z,935.86
2022-08-27T06:24:12.023Z,935.86
2022-08-27T06:25:12.751Z,935.85
2022-08-27T06:26:13.675Z,935.83
2022-08-27T06:27:14.309Z,935.87
2022-08-27T06:28:14.803Z,935.85
2022-08-27T06:29:15.019Z,935.86
2022-08-27T06:30:17.595Z,935.86
2022-08-27T06:31:17.039Z,935.87
2022-08-27T06:32:17.661Z,935.86
2022-08-27T06:33:18.232Z,935.88
2022-08-27T06:34:18.731Z,935.87
2022-08-27T06:35:19.607Z,935.88
2022-08-27T06:36:19.788Z,935.88
2022-08-27T06:37:20.211Z,935.89
2022-08-27T06:38:21.134Z,935.9
2022-08-27T06:39:22.058Z,935.9
2022-08-27T06:40:23.094Z,935.89
2022-08-27T06:41:24.074Z,935.88
2022-08-27T06:42:24.338Z,935.89
2022-08-27T06:43:25.345Z,935.88
2022-08-27T06:44:26.285Z,935.91
2022-08-27T06:45:26.577Z,935.91
2022-08-27T06:46:27.254Z,935.91
2022-08-27T06:47:27.347Z,935.92
2022-08-27T06:48:27.977Z,935.93
2022-08-27T06:49:28.132Z,935.92
2022-08-27T06:50:28.985Z,935.96
2022-08-27T06:51:29.514Z,935.97
2022-08-27T06:52:30.410Z,935.99
2022-08-27T06:53:30.615Z,935.96
2022-08-27T06:54:31.111Z,935.97
2022-08-27T06:55:35.387Z,936
2022-08-27T06:56:31.751Z,936
2022-08-27T06:57:32.692Z,935.96
2022-08-27T06:58:33.316Z,935.95
2022-08-27T06:59:34.217Z,935.96
2022-08-27T07:00:34.337Z,935.94
2022-08-27T07:01:35.111Z,935.93
2022-08-27T07:02:35.595Z,935.9
2022-08-27T07:03:36.324Z,935.95
2022-08-27T07:04:36.785Z,935.94
2022-08-27T07:05:36.905Z,935.93
2022-08-27T07:06:37.826Z,935.94
2022-08-27T07:07:43.272Z,935.95
2022-08-27T07:08:38.645Z,935.92
2022-08-27T07:09:38.908Z,935.95
2022-08-27T07:10:39.127Z,935.92
2022-08-27T07:11:39.620Z,936
2022-08-27T07:12:40.259Z,935.96
2022-08-27T07:13:40.904Z,935.97
2022-08-27T07:14:41.825Z,935.99
2022-08-27T07:15:42.722Z,936.01
2022-08-27T07:16:43.466Z,936
2022-08-27T07:17:44.531Z,936.02
2022-08-27T07:18:45.130Z,935.98
2022-08-27T07:19:45.594Z,935.99
2022-08-27T07:20:46.231Z,936
2022-08-27T07:21:47.056Z,936.02
2022-08-27T07:22:48.017Z,935.99
2022-08-27T07:23:48.117Z,935.99
2022-08-27T07:24:48.434Z,936
2022-08-27T07:25:48.747Z,935.98
2022-08-27T07:26:49.375Z,935.98
2022-08-27T07:27:49.593Z,936
2022-08-27T07:28:50.429Z,936.03
2022-08-27T07:29:51.092Z,936.02
2022-08-27T07:30:51.329Z,936.05
2022-08-27T07:31:51.786Z,936.01
2022-08-27T07:32:52.731Z,936.03
2022-08-27T07:33:53.654Z,936.02
2022-08-27T07:34:54.701Z,936.03
2022-08-27T07:35:55.712Z,936.05
2022-08-27T07:36:56.322Z,936
2022-08-27T07:37:57.249Z,936.04
2022-08-27T07:39:01.056Z,936.05
2022-08-27T07:39:58.505Z,936.05
2022-08-27T07:40:58.813Z,936.07
2022-08-27T07:41:59.110Z,936.04
2022-08-27T07:43:00.014Z,936.06
2022-08-27T07:44:00.941Z,936.04
2022-08-27T07:45:01.463Z,936.04
2022-08-27T07:46:02.162Z,936.05
2022-08-27T07:47:02.551Z,936.08
2022-08-27T07:48:03.621Z,936.09
2022-08-27T07:49:04.351Z,936.1
2022-08-27T07:50:04.983Z,936.14
2022-08-27T07:51:05.983Z,936.09
2022-08-27T07:52:06.910Z,936.11
2022-08-27T07:53:08.011Z,936.15
2022-08-27T07:54:08.130Z,936.15
2022-08-27T07:55:08.919Z,936.14
2022-08-27T07:57:10.267Z,936.1
2022-08-27T07:58:11.098Z,936.09
2022-08-27T07:59:10.749Z,936.13
2022-08-27T08:00:10.953Z,936.13
2022-08-27T08:01:11.231Z,936.13
2022-08-27T08:02:11.945Z,936.13
2022-08-27T08:03:12.865Z,936.14
2022-08-27T08:04:16.950Z,936.16
2022-08-27T08:05:14.165Z,936.2
2022-08-27T08:06:14.886Z,936.18
2022-08-27T08:07:15.810Z,936.17
2022-08-27T08:08:16.031Z,936.2
2022-08-27T08:09:17.097Z,936.2
2022-08-27T08:10:18.101Z,936.23
2022-08-27T08:14:20.279Z,936.25
2022-08-27T08:15:21.189Z,936.23
2022-08-27T08:16:22.244Z,936.24
2022-08-27T08:17:22.576Z,936.24
2022-08-27T08:18:22.657Z,936.24
2022-08-27T08:19:22.881Z,936.25
2022-08-27T08:20:35.826Z,936.27
2022-08-27T08:21:24.166Z,936.28
2022-08-27T08:22:24.362Z,936.26
2022-08-27T08:23:24.564Z,936.28
2022-08-27T08:24:24.775Z,936.27
2022-08-27T08:25:25.399Z,936.28
2022-08-27T08:26:26.247Z,936.28
2022-08-27T08:27:26.625Z,936.28
2022-08-27T08:28:27.561Z,936.27
2022-08-27T08:29:28.483Z,936.27
2022-08-27T08:30:28.719Z,936.29
2022-08-27T08:31:29.052Z,936.24
2022-08-27T08:32:29.718Z,936.32
2022-08-27T08:33:30.367Z,936.32
2022-08-27T08:34:31.316Z,936.32
2022-08-27T08:35:35.039Z,936.34
2022-08-27T08:36:33.325Z,936.37
2022-08-27T08:37:33.708Z,936.38
2022-08-27T08:38:34.116Z,936.4
2022-08-27T08:39:34.316Z,936.39
2022-08-27T08:40:34.738Z,936.37
2022-08-27T08:41:34.948Z,936.34
2022-08-27T08:42:35.890Z,936.37
2022-08-27T08:43:36.337Z,936.33
2022-08-27T08:44:37.343Z,936.33
2022-08-27T08:45:38.285Z,936.34
2022-08-27T08:48:39.827Z,936.36
2022-08-27T08:49:40.655Z,936.34
2022-08-27T08:50:41.294Z,936.34
2022-08-27T08:51:41.501Z,936.37
2022-08-27T08:52:42.397Z,936.37
2022-08-27T08:53:43.298Z,936.36
2022-08-27T08:54:44.209Z,936.36
2022-08-27T08:55:44.674Z,936.35
2022-08-27T08:56:45.118Z,936.39
2022-08-27T08:57:45.655Z,936.4
2022-08-27T08:58:46.578Z,936.4
2022-08-27T09:06:51.715Z,936.43
2022-08-27T09:07:52.371Z,936.41
2022-08-27T09:10:58.763Z,936.41
2022-08-27T09:11:59.478Z,936.39
2022-08-27T09:13:00.386Z,936.37
2022-08-27T09:14:01.319Z,936.42
2022-08-27T09:15:02.011Z,936.39
2022-08-27T09:16:02.149Z,936.36
2022-08-27T09:17:02.385Z,936.38
2022-08-27T09:18:02.919Z,936.41
2022-08-27T09:19:06.086Z,936.41
2022-08-27T09:20:04.720Z,936.38
2022-08-27T09:21:08.979Z,936.42
2022-08-27T09:22:05.094Z,936.39
2022-08-27T09:23:05.739Z,936.42
2022-08-27T09:24:06.369Z,936.41
2022-08-27T09:25:06.654Z,936.37
2022-08-27T09:26:06.994Z,936.39
2022-08-27T09:27:07.924Z,936.42
2022-08-27T09:28:08.624Z,936.41
2022-08-27T09:30:10.281Z,936.37
2022-08-27T09:33:11.264Z,936.37
2022-08-27T09:34:12.207Z,936.35
2022-08-27T09:35:12.607Z,936.34
2022-08-27T09:36:13.556Z,936.33
2022-08-27T09:37:14.501Z,936.37
2022-08-27T09:38:14.651Z,936.39
2022-08-27T09:39:14.874Z,936.35
2022-08-27T09:40:17.187Z,936.37
2022-08-27T09:41:15.901Z,936.37
2022-08-27T09:42:16.190Z,936.34
2022-08-27T09:43:16.413Z,936.34
2022-08-27T09:44:16.742Z,936.33
2022-08-27T09:45:17.246Z,936.32
2022-08-27T09:46:18.084Z,936.35
2022-08-27T09:47:18.352Z,936.35
2022-08-27T09:48:19.115Z,936.33
2022-08-27T09:49:19.746Z,936.28
2022-08-27T09:50:20.670Z,936.29
2022-08-27T09:51:21.979Z,936.3
2022-08-27T09:52:22.163Z,936.31
2022-08-27T09:53:22.794Z,936.31
2022-08-27T09:54:23.443Z,936.31
2022-08-27T09:55:23.963Z,936.37
2022-08-27T09:56:24.937Z,936.33
2022-08-27T09:57:25.440Z,936.29
2022-08-27T09:58:26.171Z,936.28
2022-08-27T09:59:27.103Z,936.29
2022-08-27T10:00:27.336Z,936.34
2022-08-27T10:01:28.346Z,936.31
2022-08-27T10:02:28.513Z,936.3
2022-08-27T10:03:32.700Z,936.31
2022-08-27T10:04:29.791Z,936.32
2022-08-27T10:05:30.244Z,936.34
2022-08-27T10:06:31.173Z,936.33
2022-08-27T10:07:32.087Z,936.29
2022-08-27T10:08:32.722Z,936.28
2022-08-27T10:09:33.629Z,936.3
2022-08-27T10:10:34.579Z,936.26
2022-08-27T10:11:35.333Z,936.27
2022-08-27T10:12:35.517Z,936.2
2022-08-27T10:13:35.748Z,936.22
2022-08-27T10:14:35.980Z,936.24
2022-08-27T10:15:41.894Z,936.24
2022-08-27T10:16:37.219Z,936.23
2022-08-27T10:17:37.488Z,936.2
2022-08-27T10:18:37.693Z,936.18
2022-08-27T10:19:38.625Z,936.21
2022-08-27T10:20:39.534Z,936.2
2022-08-27T10:21:39.903Z,936.19
2022-08-27T10:22:40.593Z,936.15
2022-08-27T10:23:40.879Z,936.15
2022-08-27T10:24:41.467Z,936.19
2022-08-27T10:25:41.700Z,936.23
2022-08-27T10:26:41.902Z,936.15
2022-08-27T10:27:42.560Z,936.2
2022-08-27T10:28:44.097Z,936.21
2022-08-27T10:29:44.241Z,936.19
2022-08-27T10:30:44.969Z,936.16
2022-08-27T10:31:45.199Z,936.21
2022-08-27T10:32:45.922Z,936.22
2022-08-27T10:33:46.436Z,936.21
2022-08-27T10:34:47.065Z,936.18
2022-08-27T10:35:48.250Z,936.12
2022-08-27T10:36:48.257Z,936.12
2022-08-27T10:37:48.388Z,936.11
2022-08-27T10:38:48.614Z,936.07
2022-08-27T10:39:49.547Z,936.11
2022-08-27T10:40:49.714Z,936.1
2022-08-27T10:41:50.620Z,936.09
2022-08-27T10:42:52.030Z,936.06
2022-08-27T10:43:51.728Z,936.08
2022-08-27T10:44:52.356Z,936.08
2022-08-27T10:45:52.583Z,936.06
2022-08-27T10:46:52.826Z,936.03
2022-08-27T10:47:53.451Z,936.06
2022-08-27T10:48:53.926Z,936.09
2022-08-27T10:49:54.899Z,936.05
2022-08-27T10:50:55.532Z,936.05
2022-08-27T10:51:56.177Z,936.06
2022-08-27T10:52:56.840Z,936.07
2022-08-27T10:53:57.740Z,936.03
2022-08-27T10:54:57.970Z,936
2022-08-27T10:55:58.485Z,936
2022-08-27T10:57:14.753Z,935.96
2022-08-27T10:58:12.869Z,935.97
2022-08-27T10:59:13.511Z,935.93
2022-08-27T11:00:14.148Z,935.96
2022-08-27T11:01:14.539Z,936.01
2022-08-27T11:02:14.920Z,935.98
2022-08-27T11:03:15.605Z,935.98
2022-08-27T11:04:15.775Z,936.01
2022-08-27T11:05:16.681Z,935.93
2022-08-27T11:06:17.155Z,935.97
2022-08-27T11:07:18.106Z,935.96
2022-08-27T11:08:19.043Z,935.93
2022-08-27T11:09:19.963Z,935.89
2022-08-27T11:10:20.832Z,935.91
2022-08-27T11:11:57.408Z,935.89
2022-08-27T11:12:28.246Z,935.86
2022-08-27T11:13:28.335Z,935.85
2022-08-27T11:14:29.033Z,935.89
2022-08-27T11:15:29.240Z,935.82
2022-08-27T11:16:29.505Z,935.83
2022-08-27T11:17:32.156Z,935.84
2022-08-27T11:18:30.358Z,935.88
2022-08-27T11:19:30.632Z,935.82
2022-08-27T11:20:30.853Z,935.81
2022-08-27T11:21:31.356Z,935.78
2022-08-27T11:22:32.422Z,935.79
2022-08-27T11:23:32.716Z,935.78
2022-08-27T11:24:35.150Z,935.8
2022-08-27T11:25:34.624Z,935.82
2022-08-27T11:26:35.255Z,935.83
2022-08-27T11:27:36.188Z,935.83
2022-08-27T11:28:36.423Z,935.81
2022-08-27T11:29:36.775Z,935.8
2022-08-27T11:30:37.701Z,935.76
2022-08-27T11:31:38.716Z,935.76
2022-08-27T11:32:39.642Z,935.72
2022-08-27T11:33:44.062Z,935.72
2022-08-27T11:34:40.775Z,935.74
2022-08-27T11:35:41.006Z,935.75
2022-08-27T11:36:41.938Z,935.69
2022-08-27T11:37:42.087Z,935.66
2022-08-27T11:38:42.316Z,935.64
2022-08-27T11:39:42.643Z,935.64
2022-08-27T11:40:43.448Z,935.64
2022-08-27T11:41:45.077Z,935.62
2022-08-27T11:42:45.088Z,935.56
2022-08-27T11:43:45.498Z,935.64
2022-08-27T11:44:46.427Z,935.66
2022-08-27T11:45:48.404Z,935.64
2022-08-27T11:46:46.898Z,935.61
2022-08-27T11:47:47.692Z,935.6
2022-08-27T11:48:48.597Z,935.6
2022-08-27T11:49:49.108Z,935.56
2022-08-27T11:50:49.158Z,935.56
2022-08-27T11:51:50.104Z,935.57
2022-08-27T11:52:50.605Z,935.55
2022-08-27T11:53:53.814Z,935.54
2022-08-27T11:54:54.473Z,935.53
2022-08-27T11:55:55.084Z,935.49
2022-08-27T11:56:56.016Z,935.49
2022-08-27T11:57:56.953Z,935.55
2022-08-27T11:58:57.091Z,935.52
2022-08-27T11:59:57.220Z,935.53
2022-08-27T12:01:00.976Z,935.57
2022-08-27T12:01:58.974Z,935.57
2022-08-27T12:02:59.215Z,935.54
2022-08-27T12:05:00.540Z,935.53
2022-08-27T12:06:01.453Z,935.48
2022-08-27T12:07:02.107Z,935.45
2022-08-27T12:08:02.425Z,935.49
2022-08-27T12:09:03.024Z,935.5
2022-08-27T12:10:03.957Z,935.46
2022-08-27T12:11:04.236Z,935.45
2022-08-27T12:12:04.784Z,935.45
2022-08-27T12:13:05.702Z,935.47
2022-08-27T12:14:05.981Z,935.47
2022-08-27T12:15:06.175Z,935.47
2022-08-27T12:16:06.562Z,935.4
2022-08-27T12:17:06.981Z,935.42
2022-08-27T12:18:07.978Z,935.41
2022-08-27T12:19:08.224Z,935.4
2022-08-27T12:20:08.451Z,935.41
2022-08-27T12:21:09.394Z,935.37
2022-08-27T12:22:10.447Z,935.4
2022-08-27T12:23:11.056Z,935.39
2022-08-27T12:24:11.504Z,935.43
2022-08-27T12:25:11.707Z,935.37
2022-08-27T12:26:12.326Z,935.37
2022-08-27T12:27:12.555Z,935.34
2022-08-27T12:28:13.158Z,935.37
2022-08-27T12:29:13.642Z,935.37
2022-08-27T12:30:13.787Z,935.4
2022-08-27T12:31:14.065Z,935.38
2022-08-27T12:32:14.683Z,935.36
2022-08-27T12:33:15.320Z,935.38
2022-08-27T12:34:16.039Z,935.37
2022-08-27T12:35:16.971Z,935.37
2022-08-27T12:36:18.611Z,935.35
2022-08-27T12:37:18.614Z,935.33
2022-08-27T12:38:18.881Z,935.3
2022-08-27T12:39:19.854Z,935.35
2022-08-27T12:40:20.813Z,935.35
2022-08-27T12:41:20.895Z,935.3
2022-08-27T12:42:21.671Z,935.32
2022-08-27T12:43:22.177Z,935.26
2022-08-27T12:44:22.459Z,935.31
2022-08-27T12:45:23.369Z,935.29
2022-08-27T12:46:24.034Z,935.26
2022-08-27T12:47:24.113Z,935.23
2022-08-27T12:48:24.272Z,935.25
2022-08-27T12:49:37.065Z,935.2
2022-08-27T12:50:25.862Z,935.17
2022-08-27T12:51:26.067Z,935.19
2022-08-27T12:52:27.016Z,935.21
2022-08-27T12:53:27.515Z,935.24
2022-08-27T12:54:29.914Z,935.19
2022-08-27T12:55:28.815Z,935.23
2022-08-27T12:56:29.528Z,935.19
2022-08-27T12:57:29.745Z,935.21
2022-08-27T12:58:30.400Z,935.2
2022-08-27T12:59:30.888Z,935.2
2022-08-27T13:00:31.881Z,935.15
2022-08-27T13:01:32.708Z,935.14
2022-08-27T13:02:33.557Z,935.18
2022-08-27T13:03:33.760Z,935.13
2022-08-27T13:04:34.031Z,935.2